Time,TemperatureF,DewpointF,PressureIn,WindDirection,WindDirectionDegrees,WindSpeedMPH,WindSpeedGustMPH,Humidity,HourlyPrecipIn,Conditions,Clouds,dailyrainin,SoftwareType,DateUTC
2013-08-22 00:00:00,76.0,51.2,29.85,SSE,148,0.0,0.0,42,0.00,,,0.00,Wunderground v.1.15,2013-08-22 06:00:00,
2013-08-22 00:10:00,75.3,53.1,29.86,SSE,148,0.0,0.0,46,0.00,,,0.00,Wunderground v.1.15,2013-08-22 06:10:00,
2013-08-22 00:20:00,74.6,53.0,29.86,SSE,148,0.0,0.0,47,0.00,,,0.00,Wunderground v.1.15,2013-08-22 06:20:00,
2013-08-22 00:30:00,73.8,53.4,29.86,SSE,148,0.0,0.0,49,0.00,,,0.00,Wunderground v.1.15,2013-08-22 06:30:00,
2013-08-22 00:40:00,73.6,52.1,29.86,SSE,148,0.0,0.0,47,0.00,,,0.00,Wunderground v.1.15,2013-08-22 06:40:00,
2013-08-22 00:50:00,74.1,53.7,29.86,SSE,148,0.0,0.0,49,0.00,,,0.00,Wunderground v.1.15,2013-08-22 06:50:00,
2013-08-22 01:00:00,73.5,53.2,29.86,SSE,148,0.0,0.0,49,0.00,,,0.00,Wunderground v.1.15,2013-08-22 07:00:00,
2013-08-22 01:10:00,73.3,52.4,29.86,SSE,148,0.0,3.0,48,0.00,,,0.00,Wunderground v.1.15,2013-08-22 07:10:00,
2013-08-22 01:20:00,74.0,51.3,29.86,SSE,148,1.0,3.0,45,0.00,,,0.00,Wunderground v.1.15,2013-08-22 07:20:00,
2013-08-22 01:30:00,74.6,50.6,29.87,SSE,148,1.0,3.0,43,0.00,,,0.00,Wunderground v.1.15,2013-08-22 07:30:00,
2013-08-22 01:40:00,74.5,50.5,29.86,SSE,148,1.0,3.0,43,0.00,,,0.00,Wunderground v.1.15,2013-08-22 07:40:00,
2013-08-22 01:50:00,74.3,50.4,29.86,SSE,148,2.0,2.0,43,0.00,,,0.00,Wunderground v.1.15,2013-08-22 07:50:00,
2013-08-22 02:00:00,74.6,50.0,29.86,SSE,148,2.0,4.0,42,0.00,,,0.00,Wunderground v.1.15,2013-08-22 08:00:00,
2013-08-22 02:10:00,74.6,50.0,29.86,SSE,148,2.0,4.0,42,0.00,,,0.00,Wunderground v.1.15,2013-08-22 08:10:00,
2013-08-22 02:20:00,74.7,50.1,29.86,SSE,148,2.0,5.0,42,0.00,,,0.00,Wunderground v.1.15,2013-08-22 08:20:00,
2013-08-22 02:30:00,74.9,49.6,29.86,SSE,148,3.0,3.0,41,0.00,,,0.00,Wunderground v.1.15,2013-08-22 08:30:00,
2013-08-22 02:40:00,74.5,49.9,29.86,SSE,148,1.0,3.0,42,0.00,,,0.00,Wunderground v.1.15,2013-08-22 08:40:00,
2013-08-22 02:50:00,74.1,49.5,29.87,SSE,148,0.0,3.0,42,0.00,,,0.00,Wunderground v.1.15,2013-08-22 08:50:00,
2013-08-22 03:00:00,73.6,50.3,29.87,SSE,148,0.0,3.0,44,0.00,,,0.00,Wunderground v.1.15,2013-08-22 09:00:00,
2013-08-22 03:10:00,73.3,50.1,29.87,SSE,148,1.0,1.0,44,0.00,,,0.00,Wunderground v.1.15,2013-08-22 09:10:00,
2013-08-22 03:20:00,72.8,50.2,29.87,SSE,148,0.0,3.0,45,0.00,,,0.00,Wunderground v.1.15,2013-08-22 09:20:00,
2013-08-22 03:30:00,72.4,50.4,29.86,SSE,148,0.0,3.0,46,0.00,,,0.00,Wunderground v.1.15,2013-08-22 09:30:00,
2013-08-22 03:40:00,71.8,50.5,29.86,SSE,148,0.0,3.0,47,0.00,,,0.00,Wunderground v.1.15,2013-08-22 09:40:00,
2013-08-22 03:50:00,71.1,51.0,29.87,SSE,148,0.0,3.0,49,0.00,,,0.00,Wunderground v.1.15,2013-08-22 09:50:00,
2013-08-22 04:00:00,70.5,51.0,29.86,SSE,148,0.0,3.0,50,0.00,,,0.00,Wunderground v.1.15,2013-08-22 10:00:00,
2013-08-22 04:10:00,69.9,51.5,29.87,SSE,148,0.0,3.0,52,0.00,,,0.00,Wunderground v.1.15,2013-08-22 10:10:00,
2013-08-22 04:20:00,69.5,51.1,29.87,SSE,148,0.0,3.0,52,0.00,,,0.00,Wunderground v.1.15,2013-08-22 10:20:00,
2013-08-22 04:30:00,69.2,51.3,29.87,SSE,148,0.0,3.0,53,0.00,,,0.00,Wunderground v.1.15,2013-08-22 10:30:00,
2013-08-22 04:40:00,68.7,51.9,29.87,SSE,148,0.0,3.0,55,0.00,,,0.00,Wunderground v.1.15,2013-08-22 10:40:00,
2013-08-22 04:50:00,68.2,51.4,29.87,SSE,148,0.0,3.0,55,0.00,,,0.00,Wunderground v.1.15,2013-08-22 10:50:00,
2013-08-22 06:30:00,66.6,51.4,29.89,SSE,148,0.0,3.0,58,0.00,,,0.00,Wunderground v.1.15,2013-08-22 12:30:00,
2013-08-22 06:40:00,66.9,52.6,29.89,SSE,148,0.0,3.0,60,0.00,,,0.00,Wunderground v.1.15,2013-08-22 12:40:00,
2013-08-22 06:50:00,67.3,52.9,29.89,SSE,148,0.0,3.0,60,0.00,,,0.00,Wunderground v.1.15,2013-08-22 12:50:00,
2013-08-22 07:00:00,66.9,53.0,29.89,SSE,148,0.0,3.0,61,0.00,,,0.00,Wunderground v.1.15,2013-08-22 13:00:00,
2013-08-22 07:10:00,66.9,52.6,29.89,SSE,148,0.0,3.0,60,0.00,,,0.00,Wunderground v.1.15,2013-08-22 13:10:00,
2013-08-22 07:20:00,67.7,52.4,29.90,SSE,148,0.0,3.0,58,0.00,,,0.00,Wunderground v.1.15,2013-08-22 13:20:00,
2013-08-22 07:30:00,67.9,52.1,29.90,SSE,148,0.0,3.0,57,0.00,,,0.00,Wunderground v.1.15,2013-08-22 13:30:00,
2013-08-22 07:40:00,68.8,51.5,29.90,SSE,148,0.0,3.0,54,0.00,,,0.00,Wunderground v.1.15,2013-08-22 13:40:00,
2013-08-22 07:50:00,69.6,54.2,29.91,SSE,148,0.0,3.0,58,0.00,,,0.00,Wunderground v.1.15,2013-08-22 13:50:00,
2013-08-22 08:00:00,70.7,53.7,29.91,SSE,148,0.0,3.0,55,0.00,,,0.00,Wunderground v.1.15,2013-08-22 14:00:00,
2013-08-22 08:10:00,71.6,53.0,29.91,SSE,148,0.0,3.0,52,0.00,,,0.00,Wunderground v.1.15,2013-08-22 14:10:00,
2013-08-22 08:20:00,72.9,52.6,29.91,SSE,148,0.0,3.0,49,0.00,,,0.00,Wunderground v.1.15,2013-08-22 14:20:00,
2013-08-22 08:30:00,73.8,52.3,29.90,SSE,148,0.0,3.0,47,0.00,,,0.00,Wunderground v.1.15,2013-08-22 14:30:00,
2013-08-22 08:40:00,74.7,52.5,29.90,SSE,148,0.0,3.0,46,0.00,,,0.00,Wunderground v.1.15,2013-08-22 14:40:00,
2013-08-22 08:50:00,75.1,52.3,29.91,SSE,148,1.0,3.0,45,0.00,,,0.00,Wunderground v.1.15,2013-08-22 14:50:00,
2013-08-22 09:00:00,75.5,50.8,29.91,SSE,148,1.0,1.0,42,0.00,,,0.00,Wunderground v.1.15,2013-08-22 15:00:00,
2013-08-22 09:10:00,76.4,50.3,29.90,SSE,148,1.0,3.0,40,0.00,,,0.00,Wunderground v.1.15,2013-08-22 15:10:00,
2013-08-22 09:20:00,77.5,50.6,29.91,SSE,148,0.0,3.0,39,0.00,,,0.00,Wunderground v.1.15,2013-08-22 15:20:00,
2013-08-22 09:30:00,78.3,49.1,29.90,SSE,148,0.0,3.0,36,0.00,,,0.00,Wunderground v.1.15,2013-08-22 15:30:00,
2013-08-22 09:40:00,78.1,49.0,29.91,SSE,148,0.0,3.0,36,0.00,,,0.00,Wunderground v.1.15,2013-08-22 15:40:00,
2013-08-22 09:50:00,78.7,48.7,29.91,SSE,148,0.0,3.0,35,0.00,,,0.00,Wunderground v.1.15,2013-08-22 15:50:00,
2013-08-22 10:00:00,80.1,49.2,29.90,SSE,148,0.0,3.0,34,0.00,,,0.00,Wunderground v.1.15,2013-08-22 16:00:00,
2013-08-22 10:10:00,81.0,48.4,29.90,SSE,148,1.0,1.0,32,0.00,,,0.00,Wunderground v.1.15,2013-08-22 16:10:00,
2013-08-22 10:20:00,80.3,46.9,29.91,SSE,148,1.0,3.0,31,0.00,,,0.00,Wunderground v.1.15,2013-08-22 16:20:00,
2013-08-22 10:30:00,80.8,47.3,29.91,South,182,1.0,6.0,31,0.00,,,0.00,Wunderground v.1.15,2013-08-22 16:30:00,
2013-08-22 10:40:00,80.4,46.1,29.91,South,178,3.0,3.0,30,0.00,,,0.00,Wunderground v.1.15,2013-08-22 16:40:00,
2013-08-22 10:50:00,82.0,46.6,29.91,South,172,1.0,1.0,29,0.00,,,0.00,Wunderground v.1.15,2013-08-22 16:50:00,
2013-08-22 11:00:00,82.1,46.7,29.90,SSE,159,2.0,3.0,29,0.00,,,0.00,Wunderground v.1.15,2013-08-22 17:00:00,
2013-08-22 11:10:00,82.3,47.8,29.90,SSE,157,1.0,3.0,30,0.00,,,0.00,Wunderground v.1.15,2013-08-22 17:10:00,
2013-08-22 11:20:00,83.4,47.8,29.90,SSE,163,1.0,1.0,29,0.00,,,0.00,Wunderground v.1.15,2013-08-22 17:20:00,
2013-08-22 11:30:00,83.7,49.0,29.89,SSE,166,1.0,3.0,30,0.00,,,0.00,Wunderground v.1.15,2013-08-22 17:30:00,
2013-08-22 11:40:00,83.6,49.8,29.89,SSW,203,2.0,4.0,31,0.00,,,0.00,Wunderground v.1.15,2013-08-22 17:40:00,
2013-08-22 11:50:00,83.8,50.8,29.89,South,180,3.0,3.0,32,0.00,,,0.00,Wunderground v.1.15,2013-08-22 17:50:00,
2013-08-22 12:00:00,84.1,51.1,29.88,SSW,195,2.0,3.0,32,0.00,,,0.00,Wunderground v.1.15,2013-08-22 18:00:00,
2013-08-22 12:10:00,84.2,51.1,29.88,SW,219,3.0,3.0,32,0.00,,,0.00,Wunderground v.1.15,2013-08-22 18:10:00,
2013-08-22 12:20:00,85.2,52.0,29.87,SSE,149,1.0,3.0,32,0.00,,,0.00,Wunderground v.1.15,2013-08-22 18:20:00,
2013-08-22 12:30:00,85.5,51.4,29.87,SE,143,2.0,3.0,31,0.00,,,0.00,Wunderground v.1.15,2013-08-22 18:30:00,
2013-08-22 12:40:00,85.5,50.5,29.86,South,171,2.0,2.0,30,0.00,,,0.00,Wunderground v.1.15,2013-08-22 18:40:00,
2013-08-22 12:50:00,86.5,51.4,29.86,SSE,151,2.0,2.0,30,0.00,,,0.00,Wunderground v.1.15,2013-08-22 18:50:00,
2013-08-22 13:00:00,86.0,51.0,29.85,SSW,199,3.0,3.0,30,0.00,,,0.00,Wunderground v.1.15,2013-08-22 19:00:00,
2013-08-22 13:10:00,86.9,51.7,29.84,SSW,202,2.0,3.0,30,0.00,,,0.00,Wunderground v.1.15,2013-08-22 19:10:00,
2013-08-22 13:20:00,87.4,52.2,29.84,South,178,4.0,5.0,30,0.00,,,0.00,Wunderground v.1.15,2013-08-22 19:20:00,
2013-08-22 13:30:00,87.8,52.5,29.84,SW,234,4.0,4.0,30,0.00,,,0.00,Wunderground v.1.15,2013-08-22 19:30:00,
2013-08-22 13:40:00,88.4,52.1,29.83,South,190,4.0,4.0,29,0.00,,,0.00,Wunderground v.1.15,2013-08-22 19:40:00,
2013-08-22 13:50:00,87.8,51.6,29.83,South,173,4.0,4.0,29,0.00,,,0.00,Wunderground v.1.15,2013-08-22 19:50:00,
2013-08-22 14:00:00,89.4,52.0,29.82,South,188,1.0,9.0,28,0.00,,,0.00,Wunderground v.1.15,2013-08-22 20:00:00,
2013-08-22 14:10:00,87.8,50.6,29.82,SSE,163,6.0,6.0,28,0.00,,,0.00,Wunderground v.1.15,2013-08-22 20:10:00,
2013-08-22 14:20:00,88.6,50.3,29.82,SSW,198,3.0,3.0,27,0.00,,,0.00,Wunderground v.1.15,2013-08-22 20:20:00,
2013-08-22 14:30:00,89.0,50.7,29.81,ESE,109,3.0,3.0,27,0.00,,,0.00,Wunderground v.1.15,2013-08-22 20:30:00,
2013-08-22 14:40:00,90.6,50.0,29.81,SSW,203,2.0,7.0,25,0.00,,,0.00,Wunderground v.1.15,2013-08-22 20:40:00,
2013-08-22 14:50:00,90.0,49.5,29.80,WSW,239,4.0,7.0,25,0.00,,,0.00,Wunderground v.1.15,2013-08-22 20:50:00,
2013-08-22 15:00:00,89.9,49.4,29.80,West,261,5.0,5.0,25,0.00,,,0.00,Wunderground v.1.15,2013-08-22 21:00:00,
2013-08-22 15:10:00,90.3,50.8,29.80,SW,224,4.0,4.0,26,0.00,,,0.00,Wunderground v.1.15,2013-08-22 21:10:00,
2013-08-22 15:20:00,88.8,49.5,29.79,SE,146,5.0,5.0,26,0.00,,,0.00,Wunderground v.1.15,2013-08-22 21:20:00,
2013-08-22 15:30:00,89.7,51.3,29.78,South,186,3.0,6.0,27,0.00,,,0.00,Wunderground v.1.15,2013-08-22 21:30:00,
2013-08-22 15:40:00,90.3,50.8,29.77,SW,221,6.0,7.0,26,0.00,,,0.00,Wunderground v.1.15,2013-08-22 21:40:00,
2013-08-22 15:50:00,90.9,50.2,29.77,South,184,2.0,2.0,25,0.00,,,0.00,Wunderground v.1.15,2013-08-22 21:50:00,
2013-08-22 16:00:00,90.2,50.7,29.76,South,178,3.0,6.0,26,0.00,,,0.00,Wunderground v.1.15,2013-08-22 22:00:00,
2013-08-22 16:10:00,91.2,50.5,29.76,SW,235,4.0,7.0,25,0.00,,,0.00,Wunderground v.1.15,2013-08-22 22:10:00,
2013-08-22 16:20:00,91.4,50.6,29.76,SW,227,4.0,6.0,25,0.00,,,0.00,Wunderground v.1.15,2013-08-22 22:20:00,
2013-08-22 16:30:00,89.2,49.8,29.76,South,171,4.0,5.0,26,0.00,,,0.00,Wunderground v.1.15,2013-08-22 22:30:00,
2013-08-22 16:40:00,88.3,50.1,29.75,SSW,199,3.0,3.0,27,0.00,,,0.00,Wunderground v.1.15,2013-08-22 22:40:00,
2013-08-22 16:50:00,88.5,49.2,29.75,SSW,200,2.0,2.0,26,0.00,,,0.00,Wunderground v.1.15,2013-08-22 22:50:00,
2013-08-22 17:00:00,89.2,51.8,29.74,SSW,200,0.0,3.0,28,0.00,,,0.00,Wunderground v.1.15,2013-08-22 23:00:00,
2013-08-22 17:10:00,90.6,53.0,29.74,NE,54,3.0,3.0,28,0.00,,,0.00,Wunderground v.1.15,2013-08-22 23:10:00,
2013-08-22 17:20:00,91.0,52.4,29.74,NE,54,1.0,3.0,27,0.00,,,0.00,Wunderground v.1.15,2013-08-22 23:20:00,
2013-08-22 17:30:00,90.8,49.0,29.73,ESE,114,2.0,5.0,24,0.00,,,0.00,Wunderground v.1.15,2013-08-22 23:30:00,
2013-08-22 17:40:00,90.1,49.5,29.73,South,171,3.0,3.0,25,0.00,,,0.00,Wunderground v.1.15,2013-08-22 23:40:00,
2013-08-22 17:50:00,89.8,49.3,29.73,South,186,2.0,6.0,25,0.00,,,0.00,Wunderground v.1.15,2013-08-22 23:50:00,
2013-08-22 18:00:00,89.1,48.7,29.73,SW,219,6.0,6.0,25,0.00,,,0.00,Wunderground v.1.15,2013-08-23 00:00:00,
2013-08-22 18:10:00,89.9,48.3,29.73,SW,219,2.0,2.0,24,0.00,,,0.00,Wunderground v.1.15,2013-08-23 00:10:00,
2013-08-22 18:20:00,89.5,46.8,29.72,South,178,3.0,4.0,23,0.00,,,0.00,Wunderground v.1.15,2013-08-23 00:20:00,
2013-08-22 18:30:00,89.1,46.5,29.72,SSW,196,2.0,5.0,23,0.00,,,0.00,Wunderground v.1.15,2013-08-23 00:30:00,
2013-08-22 18:40:00,88.5,46.0,29.72,SW,215,6.0,6.0,23,0.00,,,0.00,Wunderground v.1.15,2013-08-23 00:40:00,
2013-08-22 18:50:00,88.3,45.8,29.72,SSW,210,5.0,5.0,23,0.00,,,0.00,Wunderground v.1.15,2013-08-23 00:50:00,
2013-08-22 19:00:00,88.2,45.7,29.72,South,184,5.0,5.0,23,0.00,,,0.00,Wunderground v.1.15,2013-08-23 01:00:00,
2013-08-22 19:10:00,87.8,45.4,29.73,SSW,195,6.0,6.0,23,0.00,,,0.00,Wunderground v.1.15,2013-08-23 01:10:00,
2013-08-22 19:20:00,87.4,45.1,29.73,South,174,6.0,6.0,23,0.00,,,0.00,Wunderground v.1.15,2013-08-23 01:20:00,
2013-08-22 19:30:00,87.1,45.9,29.73,SSE,150,5.0,6.0,24,0.00,,,0.00,Wunderground v.1.15,2013-08-23 01:30:00,
2013-08-22 19:40:00,86.9,45.8,29.74,SSE,152,3.0,3.0,24,0.00,,,0.00,Wunderground v.1.15,2013-08-23 01:40:00,
2013-08-22 19:50:00,86.6,45.5,29.74,SSE,155,2.0,2.0,24,0.00,,,0.00,Wunderground v.1.15,2013-08-23 01:50:00,
2013-08-22 20:00:00,86.3,45.3,29.75,SE,146,4.0,4.0,24,0.00,,,0.00,Wunderground v.1.15,2013-08-23 02:00:00,
2013-08-22 20:10:00,85.9,44.9,29.75,SE,145,4.0,4.0,24,0.00,,,0.00,Wunderground v.1.15,2013-08-23 02:10:00,
2013-08-22 20:20:00,85.3,45.5,29.75,SE,145,2.0,2.0,25,0.00,,,0.00,Wunderground v.1.15,2013-08-23 02:20:00,
2013-08-22 20:30:00,84.5,45.8,29.76,SE,145,2.0,2.0,26,0.00,,,0.00,Wunderground v.1.15,2013-08-23 02:30:00,
2013-08-22 20:40:00,84.2,44.6,29.76,SE,145,1.0,1.0,25,0.00,,,0.00,Wunderground v.1.15,2013-08-23 02:40:00,
2013-08-22 20:50:00,83.8,44.2,29.76,SE,145,1.0,1.0,25,0.00,,,0.00,Wunderground v.1.15,2013-08-23 02:50:00,
2013-08-22 21:00:00,83.3,43.8,29.77,SE,145,0.0,3.0,25,0.00,,,0.00,Wunderground v.1.15,2013-08-23 03:00:00,
2013-08-22 21:10:00,82.9,44.5,29.77,SE,145,1.0,3.0,26,0.00,,,0.00,Wunderground v.1.15,2013-08-23 03:10:00,
2013-08-22 21:20:00,82.9,43.5,29.78,SE,144,2.0,3.0,25,0.00,,,0.00,Wunderground v.1.15,2013-08-23 03:20:00,
2013-08-22 21:30:00,82.7,44.3,29.78,ESE,123,3.0,3.0,26,0.00,,,0.00,Wunderground v.1.15,2013-08-23 03:30:00,
2013-08-22 21:40:00,82.4,44.1,29.79,ESE,116,3.0,3.0,26,0.00,,,0.00,Wunderground v.1.15,2013-08-23 03:40:00,
2013-08-22 21:50:00,82.1,41.7,29.80,SSE,148,2.0,3.0,24,0.00,,,0.00,Wunderground v.1.15,2013-08-23 03:50:00,
2013-08-22 22:00:00,81.9,42.6,29.80,SSE,148,2.0,4.0,25,0.00,,,0.00,Wunderground v.1.15,2013-08-23 04:00:00,
2013-08-22 22:10:00,81.4,42.2,29.80,SSE,147,4.0,4.0,25,0.00,,,0.00,Wunderground v.1.15,2013-08-23 04:10:00,
2013-08-22 22:20:00,80.8,42.7,29.81,SSE,148,2.0,2.0,26,0.00,,,0.00,Wunderground v.1.15,2013-08-23 04:20:00,
2013-08-22 22:30:00,79.9,42.9,29.81,SSE,148,1.0,3.0,27,0.00,,,0.00,Wunderground v.1.15,2013-08-23 04:30:00,
2013-08-22 22:40:00,79.3,42.4,29.81,SSE,148,1.0,1.0,27,0.00,,,0.00,Wunderground v.1.15,2013-08-23 04:40:00,
2013-08-22 22:50:00,78.8,42.0,29.81,SSE,147,1.0,3.0,27,0.00,,,0.00,Wunderground v.1.15,2013-08-23 04:50:00,
2013-08-22 23:00:00,78.4,42.6,29.81,SE,145,1.0,3.0,28,0.00,,,0.00,Wunderground v.1.15,2013-08-23 05:00:00,
2013-08-22 23:10:00,78.1,42.3,29.81,SE,144,1.0,3.0,28,0.00,,,0.00,Wunderground v.1.15,2013-08-23 05:10:00,
2013-08-22 23:20:00,78.2,41.5,29.81,SSE,159,3.0,3.0,27,0.00,,,0.00,Wunderground v.1.15,2013-08-23 05:20:00,
2013-08-22 23:30:00,78.1,41.4,29.81,SSE,161,3.0,3.0,27,0.00,,,0.00,Wunderground v.1.15,2013-08-23 05:30:00,
2013-08-22 23:40:00,78.0,41.3,29.81,SSE,161,2.0,2.0,27,0.00,,,0.00,Wunderground v.1.15,2013-08-23 05:40:00,
2013-08-22 23:50:00,77.6,41.9,29.81,SSE,161,1.0,3.0,28,0.00,,,0.00,Wunderground v.1.15,2013-08-23 05:50:00,